createdAt,value
2023-05-22T00:00:09.439Z,16.30
2023-05-22T00:02:39.103Z,16.35
2023-05-22T00:05:07.695Z,16.32
2023-05-22T00:07:35.284Z,16.24
2023-05-22T00:10:02.864Z,16.33
2023-05-22T00:12:30.439Z,16.43
2023-05-22T00:14:58.005Z,16.43
2023-05-22T00:17:26.725Z,16.48
2023-05-22T00:19:55.868Z,16.61
2023-05-22T00:22:23.473Z,16.63
2023-05-22T00:24:51.083Z,16.62
2023-05-22T00:27:18.631Z,16.50
2023-05-22T00:29:46.344Z,16.51
2023-05-22T00:32:14.084Z,16.49
2023-05-22T00:34:41.678Z,16.38
2023-05-22T00:37:09.328Z,16.42
2023-05-22T00:39:36.853Z,16.34
2023-05-22T00:42:04.627Z,16.24
2023-05-22T00:44:32.120Z,16.41
2023-05-22T00:46:59.913Z,16.42
2023-05-22T00:49:27.546Z,16.48
2023-05-22T00:51:55.225Z,16.43
2023-05-22T00:54:22.787Z,16.42
2023-05-22T00:56:51.955Z,16.24
2023-05-22T00:59:21.027Z,16.15
2023-05-22T01:01:49.274Z,16.30
2023-05-22T01:04:18.512Z,16.27
2023-05-22T01:06:46.685Z,16.20
2023-05-22T01:09:15.489Z,16.19
2023-05-22T01:12:01.835Z,16.38
2023-05-22T01:14:40.045Z,16.34
2023-05-22T01:17:29.110Z,16.41
2023-05-22T01:20:15.358Z,16.36
2023-05-22T01:23:08.821Z,16.44
2023-05-22T01:25:36.284Z,16.34
2023-05-22T01:28:17.557Z,16.36
2023-05-22T01:30:48.029Z,16.38
2023-05-22T01:33:17.175Z,16.33
2023-05-22T01:35:49.706Z,16.21
2023-05-22T01:38:18.031Z,16.29
2023-05-22T01:40:47.495Z,16.38
2023-05-22T01:43:16.195Z,16.51
2023-05-22T01:45:43.754Z,16.47
2023-05-22T01:48:12.020Z,16.49
2023-05-22T01:50:40.999Z,16.37
2023-05-22T01:53:30.102Z,16.27
2023-05-22T01:56:06.649Z,16.34
2023-05-22T01:59:21.973Z,16.37
2023-05-22T02:01:52.780Z,16.45
2023-05-22T02:04:22.422Z,16.31
2023-05-22T02:06:53.924Z,16.35
2023-05-22T02:09:24.693Z,16.27
2023-05-22T02:11:52.673Z,16.21
2023-05-22T02:14:21.191Z,16.18
2023-05-22T02:16:48.978Z,16.16
2023-05-22T02:19:16.625Z,16.26
2023-05-22T02:21:44.421Z,16.25
2023-05-22T02:24:12.063Z,16.28
2023-05-22T02:26:39.742Z,16.24
2023-05-22T02:29:07.307Z,16.21
2023-05-22T02:31:35.314Z,16.04
2023-05-22T02:34:05.362Z,16.13
2023-05-22T02:36:33.250Z,16.14
2023-05-22T02:39:01.357Z,16.15
2023-05-22T02:41:28.866Z,16.10
2023-05-22T02:43:56.391Z,16.02
2023-05-22T02:46:23.970Z,15.98
2023-05-22T02:48:51.541Z,16.00
2023-05-22T02:51:19.076Z,16.00
2023-05-22T02:53:50.770Z,15.93
2023-05-22T02:56:18.899Z,15.82
2023-05-22T02:58:46.454Z,15.87
2023-05-22T03:01:14.128Z,15.87
2023-05-22T03:03:43.797Z,15.81
2023-05-22T03:06:11.577Z,15.79
2023-05-22T03:08:43.466Z,15.77
2023-05-22T03:11:11.378Z,15.77
2023-05-22T03:13:39.002Z,15.70
2023-05-22T03:16:07.010Z,15.71
2023-05-22T03:18:34.549Z,15.66
2023-05-22T03:21:02.105Z,15.58
2023-05-22T03:23:29.631Z,15.54
2023-05-22T03:25:57.289Z,15.56
2023-05-22T03:28:24.899Z,15.56
2023-05-22T03:30:52.527Z,15.51
2023-05-22T03:33:20.194Z,15.53
2023-05-22T03:35:47.812Z,15.52
2023-05-22T03:38:15.529Z,15.54
2023-05-22T03:40:43.194Z,15.61
2023-05-22T03:43:10.813Z,15.52
2023-05-22T03:45:38.442Z,15.53
2023-05-22T03:48:06.185Z,15.52
2023-05-22T03:50:33.766Z,15.56
2023-05-22T03:53:01.475Z,15.52
2023-05-22T03:55:30.844Z,15.50
2023-05-22T03:57:58.738Z,15.48
2023-05-22T04:00:35.937Z,15.47
2023-05-22T04:03:03.701Z,15.46
2023-05-22T04:05:31.882Z,15.53
2023-05-22T04:07:59.648Z,15.52
2023-05-22T04:10:27.197Z,15.53
2023-05-22T04:12:54.744Z,15.48
2023-05-22T04:15:24.126Z,15.44
2023-05-22T04:17:52.322Z,15.41
2023-05-22T04:20:22.218Z,15.46
2023-05-22T04:22:49.860Z,15.32
2023-05-22T04:25:17.503Z,15.38
2023-05-22T04:27:45.012Z,15.49
2023-05-22T04:30:12.734Z,15.36
2023-05-22T04:32:40.937Z,15.35
2023-05-22T04:35:10.090Z,15.22
2023-05-22T04:37:37.734Z,15.20
2023-05-22T04:40:07.629Z,15.36
2023-05-22T04:42:35.575Z,15.29
2023-05-22T04:45:03.104Z,15.36
2023-05-22T04:47:31.824Z,15.25
2023-05-22T04:50:00.987Z,15.42
2023-05-22T04:52:28.587Z,15.58
2023-05-22T04:54:56.526Z,15.37
2023-05-22T04:57:25.681Z,15.45
2023-05-22T04:59:53.524Z,15.39
2023-05-22T05:02:21.361Z,15.60
2023-05-22T05:04:48.898Z,15.69
2023-05-22T05:07:18.576Z,15.77
2023-05-22T05:09:46.213Z,15.71
2023-05-22T05:12:13.804Z,15.86
2023-05-22T05:14:41.334Z,16.09
2023-05-22T05:17:08.974Z,16.24
2023-05-22T05:19:37.125Z,16.15
2023-05-22T05:22:05.126Z,16.11
2023-05-22T05:24:33.179Z,16.36
2023-05-22T05:27:00.816Z,16.40
2023-05-22T05:29:28.525Z,16.29
2023-05-22T05:31:56.093Z,16.52
2023-05-22T05:34:23.836Z,16.59
2023-05-22T05:36:52.489Z,16.83
2023-05-22T05:39:20.105Z,16.93
2023-05-22T05:41:47.745Z,16.83
2023-05-22T05:44:15.293Z,17.02
2023-05-22T05:46:42.886Z,17.30
2023-05-22T05:49:11.688Z,17.35
2023-05-22T05:51:39.805Z,17.41
2023-05-22T05:54:07.447Z,17.50
2023-05-22T05:56:35.053Z,17.71
2023-05-22T05:59:02.654Z,17.74
2023-05-22T06:01:33.000Z,17.83
2023-05-22T06:04:03.214Z,17.91
2023-05-22T06:06:35.866Z,18.05
2023-05-22T06:09:07.583Z,18.02
2023-05-22T06:11:35.363Z,18.25
2023-05-22T06:14:03.904Z,18.49
2023-05-22T06:16:31.807Z,18.61
2023-05-22T06:19:00.188Z,18.75
2023-05-22T06:21:27.827Z,19.00
2023-05-22T06:23:55.661Z,18.95
2023-05-22T06:26:23.601Z,18.95
2023-05-22T06:28:51.919Z,19.13
2023-05-22T06:31:19.636Z,19.22
2023-05-22T06:33:47.411Z,19.17
2023-05-22T06:36:16.172Z,19.24
2023-05-22T06:38:43.805Z,19.37
2023-05-22T06:41:11.552Z,19.48
2023-05-22T06:43:39.177Z,19.66
2023-05-22T06:46:07.344Z,19.64
2023-05-22T06:48:36.312Z,20.02
2023-05-22T06:51:04.255Z,20.07
2023-05-22T06:53:32.035Z,20.16
2023-05-22T06:55:59.638Z,19.90
2023-05-22T06:58:27.354Z,19.69
2023-05-22T07:00:55.347Z,20.19
2023-05-22T07:03:22.976Z,20.38
2023-05-22T07:05:51.338Z,20.45
2023-05-22T07:08:18.953Z,20.34
2023-05-22T07:10:46.668Z,20.67
2023-05-22T07:13:14.301Z,20.84
2023-05-22T07:15:41.844Z,20.77
2023-05-22T07:18:10.413Z,20.91
2023-05-22T07:20:39.030Z,20.81
2023-05-22T07:23:07.580Z,20.77
2023-05-22T07:25:35.256Z,20.90
2023-05-22T07:28:08.618Z,20.94
2023-05-22T07:30:39.664Z,21.29
2023-05-22T07:33:07.606Z,21.52
2023-05-22T07:35:35.758Z,21.20
2023-05-22T07:38:04.034Z,21.41
2023-05-22T07:40:31.661Z,21.17
2023-05-22T07:42:59.322Z,21.11
2023-05-22T07:45:26.988Z,21.12
2023-05-22T07:47:56.296Z,21.17
2023-05-22T07:50:26.693Z,21.46
2023-05-22T07:52:54.462Z,21.75
2023-05-22T07:55:22.025Z,21.87
2023-05-22T07:57:49.690Z,22.14
2023-05-22T08:00:18.261Z,22.01
2023-05-22T08:02:46.479Z,22.17
2023-05-22T08:05:14.402Z,22.04
2023-05-22T08:07:42.008Z,22.10
2023-05-22T08:10:16.233Z,22.69
2023-05-22T08:12:44.072Z,22.79
2023-05-22T08:15:12.337Z,22.65
2023-05-22T08:17:40.076Z,22.64
2023-05-22T08:20:08.923Z,22.62
2023-05-22T08:22:39.943Z,23.14
2023-05-22T08:25:07.686Z,23.40
2023-05-22T08:27:35.289Z,23.25
2023-05-22T08:30:04.476Z,23.07
2023-05-22T08:32:32.465Z,23.42
2023-05-22T08:35:00.441Z,23.88
2023-05-22T08:37:28.552Z,24.05
2023-05-22T08:39:56.251Z,24.98
2023-05-22T08:42:24.018Z,25.31
2023-05-22T08:44:51.716Z,25.73
2023-05-22T08:47:20.686Z,25.35
2023-05-22T08:49:52.130Z,25.26
2023-05-22T08:52:34.771Z,25.06
2023-05-22T08:55:06.221Z,25.08
2023-05-22T08:57:36.628Z,25.27
2023-05-22T09:00:05.613Z,25.28
2023-05-22T09:02:33.945Z,25.19
2023-05-22T09:05:05.510Z,25.14
2023-05-22T09:07:34.214Z,24.89
2023-05-22T09:10:05.443Z,24.68
2023-05-22T09:12:33.828Z,24.98
2023-05-22T09:15:12.419Z,26.04
2023-05-22T09:17:41.972Z,26.15
2023-05-22T09:20:13.283Z,26.27
2023-05-22T09:22:42.658Z,26.47
2023-05-22T09:25:12.904Z,26.59
2023-05-22T09:27:40.618Z,26.06
2023-05-22T09:30:10.035Z,26.04
2023-05-22T09:32:39.313Z,25.93
2023-05-22T09:35:07.756Z,26.29
2023-05-22T09:37:36.431Z,26.52
2023-05-22T09:40:09.935Z,27.04
2023-05-22T09:42:38.216Z,27.49
2023-05-22T09:45:09.664Z,26.82
2023-05-22T09:47:37.263Z,27.67
2023-05-22T09:50:08.602Z,27.09
2023-05-22T09:52:37.772Z,27.69
2023-05-22T09:55:09.621Z,28.06
2023-05-22T09:57:46.586Z,28.77
2023-05-22T10:00:18.492Z,28.69
2023-05-22T10:02:51.680Z,28.81
2023-05-22T10:05:22.451Z,28.41
2023-05-22T10:07:58.355Z,27.59
2023-05-22T10:10:26.708Z,26.88
2023-05-22T10:13:02.044Z,27.14
2023-05-22T10:15:30.406Z,26.83
2023-05-22T10:17:59.589Z,26.38
2023-05-22T10:20:28.016Z,25.77
2023-05-22T10:22:56.692Z,25.83
2023-05-22T10:25:25.824Z,26.91
2023-05-22T10:27:54.762Z,27.36
2023-05-22T10:30:35.866Z,28.15
2023-05-22T10:33:16.803Z,28.23
2023-05-22T10:36:32.658Z,28.10
2023-05-22T10:39:44.407Z,27.99
2023-05-22T10:42:15.852Z,26.95
2023-05-22T10:44:44.125Z,26.63
2023-05-22T10:47:13.467Z,27.28
2023-05-22T10:49:45.391Z,27.21
2023-05-22T10:52:14.857Z,28.09
2023-05-22T10:54:49.209Z,28.37
2023-05-22T10:57:18.817Z,28.37
2023-05-22T10:59:49.198Z,28.77
2023-05-22T11:02:29.343Z,28.61
2023-05-22T11:04:57.277Z,28.79
2023-05-22T11:07:24.912Z,29.48
2023-05-22T11:10:01.749Z,30.22
2023-05-22T11:12:31.119Z,30.46
2023-05-22T11:15:10.927Z,29.84
2023-05-22T11:17:51.788Z,29.08
2023-05-22T11:20:19.428Z,29.06
2023-05-22T11:23:03.280Z,29.97
2023-05-22T11:25:31.086Z,30.65
2023-05-22T11:27:59.404Z,29.79
2023-05-22T11:30:28.652Z,30.45
2023-05-22T11:32:59.475Z,29.53
2023-05-22T11:35:27.629Z,30.41
2023-05-22T11:37:56.679Z,30.59
2023-05-22T11:40:26.281Z,30.53
2023-05-22T11:42:54.540Z,30.60
2023-05-22T11:45:22.681Z,30.35
2023-05-22T11:47:50.968Z,29.50
2023-05-22T11:52:50.236Z,29.17
2023-05-22T11:55:18.156Z,29.47
2023-05-22T11:57:47.891Z,29.97
2023-05-22T12:00:16.348Z,30.43
2023-05-22T12:02:47.959Z,31.22
2023-05-22T12:05:16.554Z,30.67
2023-05-22T12:07:44.639Z,30.89
2023-05-22T12:10:12.399Z,30.74
2023-05-22T12:12:40.073Z,30.88
2023-05-22T12:15:08.395Z,30.57
2023-05-22T12:17:38.695Z,30.41
2023-05-22T12:20:07.399Z,30.41
2023-05-22T12:22:35.091Z,30.24
2023-05-22T12:25:02.626Z,30.32
2023-05-22T12:27:34.164Z,31.23
2023-05-22T12:30:10.365Z,29.61
2023-05-22T12:32:38.226Z,29.44
2023-05-22T12:35:06.139Z,30.36
2023-05-22T12:37:35.588Z,30.47
2023-05-22T12:40:06.291Z,30.12
2023-05-22T12:42:33.895Z,29.94
2023-05-22T12:45:01.571Z,30.00
2023-05-22T12:47:29.122Z,29.84
2023-05-22T12:49:56.895Z,30.50
2023-05-22T12:52:24.477Z,30.56
2023-05-22T12:54:52.053Z,29.82
2023-05-22T12:57:19.789Z,30.65
2023-05-22T12:59:47.323Z,30.03
2023-05-22T13:02:16.985Z,29.80
2023-05-22T13:04:44.651Z,29.90
2023-05-22T13:07:12.382Z,29.43
2023-05-22T13:09:40.022Z,29.70
2023-05-22T13:12:08.217Z,29.42
2023-05-22T13:14:35.877Z,29.23
2023-05-22T13:17:03.590Z,29.67
2023-05-22T13:19:31.443Z,29.84
2023-05-22T13:21:59.191Z,29.83
2023-05-22T13:24:26.749Z,29.60
2023-05-22T13:26:54.364Z,30.16
2023-05-22T13:29:21.900Z,30.26
2023-05-22T13:31:49.652Z,30.28
2023-05-22T13:34:17.327Z,29.61
2023-05-22T13:36:45.123Z,28.61
2023-05-22T13:39:12.734Z,27.08
2023-05-22T13:41:40.422Z,26.52
2023-05-22T13:44:08.059Z,26.34
2023-05-22T13:46:36.693Z,26.61
2023-05-22T13:49:05.697Z,26.37
2023-05-22T13:51:33.461Z,27.40
2023-05-22T13:54:01.111Z,27.35
2023-05-22T13:56:28.615Z,27.53
2023-05-22T13:58:56.331Z,27.58
2023-05-22T14:01:24.390Z,27.28
2023-05-22T14:03:52.181Z,27.10
2023-05-22T14:06:19.782Z,27.03
2023-05-22T14:08:47.389Z,26.81
2023-05-22T14:11:14.998Z,26.68
2023-05-22T14:13:42.628Z,26.79
2023-05-22T14:16:10.409Z,27.30
2023-05-22T14:18:37.988Z,27.03
2023-05-22T14:21:05.806Z,27.13
2023-05-22T14:23:33.430Z,26.71
2023-05-22T14:26:00.990Z,26.35
2023-05-22T14:28:28.571Z,26.32
2023-05-22T14:30:57.026Z,26.00
2023-05-22T14:33:24.612Z,25.92
2023-05-22T14:35:52.547Z,25.70
2023-05-22T14:38:20.103Z,25.87
2023-05-22T14:40:47.774Z,26.04
2023-05-22T14:43:15.555Z,25.55
2023-05-22T14:45:43.258Z,25.48
2023-05-22T14:48:11.517Z,25.22
2023-05-22T14:50:39.151Z,25.42
2023-05-22T14:53:06.739Z,25.19
2023-05-22T14:55:34.396Z,25.19
2023-05-22T14:58:01.997Z,24.78
2023-05-22T15:00:29.976Z,24.68
2023-05-22T15:02:57.700Z,24.98
2023-05-22T15:05:26.612Z,24.49
2023-05-22T15:07:58.335Z,24.22
2023-05-22T15:10:26.753Z,24.28
2023-05-22T15:12:54.568Z,24.73
2023-05-22T15:15:22.251Z,23.93
2023-05-22T15:17:49.826Z,24.63
2023-05-22T15:20:17.593Z,24.48
2023-05-22T15:22:45.178Z,24.34
2023-05-22T15:25:15.177Z,24.02
2023-05-22T15:27:43.492Z,24.55
2023-05-22T15:30:12.251Z,23.94
2023-05-22T15:32:40.235Z,24.16
2023-05-22T15:35:09.099Z,24.47
2023-05-22T15:37:37.013Z,24.06
2023-05-22T15:40:05.926Z,24.17
2023-05-22T15:42:33.564Z,23.83
2023-05-22T15:45:01.826Z,24.23
2023-05-22T15:47:30.724Z,24.03
2023-05-22T15:49:58.377Z,24.13
2023-05-22T15:52:25.936Z,23.70
2023-05-22T15:54:55.034Z,23.82
2023-05-22T15:57:24.482Z,24.04
2023-05-22T15:59:52.024Z,23.84
2023-05-22T16:02:19.948Z,23.81
2023-05-22T16:04:47.676Z,23.95
2023-05-22T16:07:15.244Z,23.88
2023-05-22T16:09:43.508Z,23.83
2023-05-22T16:12:11.394Z,23.94
2023-05-22T16:14:40.234Z,23.82
2023-05-22T16:17:08.083Z,23.40
2023-05-22T16:19:35.654Z,23.82
2023-05-22T16:22:03.336Z,23.65
2023-05-22T16:24:31.011Z,23.39
2023-05-22T16:27:01.015Z,23.85
2023-05-22T16:29:28.622Z,23.41
2023-05-22T16:31:57.775Z,23.48
2023-05-22T16:34:25.533Z,23.54
2023-05-22T16:36:53.024Z,23.71
2023-05-22T16:39:20.958Z,23.70
2023-05-22T16:41:48.561Z,23.69
2023-05-22T16:44:16.105Z,23.43
2023-05-22T16:46:43.916Z,23.25
2023-05-22T16:49:11.580Z,23.07
2023-05-22T16:51:39.245Z,23.21
2023-05-22T16:54:06.777Z,22.94
2023-05-22T16:56:34.968Z,22.87
2023-05-22T16:59:03.500Z,22.67
2023-05-22T17:01:31.675Z,22.57
2023-05-22T17:03:59.259Z,22.40
2023-05-22T17:06:27.672Z,22.31
2023-05-22T17:08:55.266Z,22.43
2023-05-22T17:11:23.958Z,22.34
2023-05-22T17:13:51.586Z,22.05
2023-05-22T17:16:19.333Z,22.19
2023-05-22T17:18:46.920Z,21.92
2023-05-22T17:21:14.502Z,21.99
2023-05-22T17:23:42.046Z,21.91
2023-05-22T17:26:09.686Z,21.93
2023-05-22T17:28:37.260Z,22.01
2023-05-22T17:31:04.828Z,22.13
2023-05-22T17:33:33.465Z,22.06
2023-05-22T17:36:01.130Z,21.76
2023-05-22T17:38:28.774Z,21.54
2023-05-22T17:40:56.350Z,21.63
2023-05-22T17:43:23.968Z,21.50
2023-05-22T17:45:51.581Z,21.49
2023-05-22T17:48:23.430Z,21.52
2023-05-22T17:50:52.034Z,21.53
2023-05-22T17:53:20.840Z,21.50
2023-05-22T17:55:52.244Z,21.44
2023-05-22T17:58:20.824Z,21.24
2023-05-22T18:00:49.006Z,21.27
2023-05-22T18:03:21.389Z,21.40
2023-05-22T18:05:51.612Z,21.26
2023-05-22T18:08:21.701Z,21.08
2023-05-22T18:10:50.393Z,21.01
2023-05-22T18:13:19.403Z,20.95
2023-05-22T18:15:48.554Z,21.12
2023-05-22T18:18:16.750Z,20.92
2023-05-22T18:20:45.063Z,20.84
2023-05-22T18:23:13.492Z,20.93
2023-05-22T18:25:41.715Z,20.78
2023-05-22T18:28:09.572Z,20.92
2023-05-22T18:30:37.713Z,20.95
2023-05-22T18:33:06.071Z,20.93
2023-05-22T18:35:34.086Z,20.76
2023-05-22T18:38:02.292Z,20.64
2023-05-22T18:40:30.511Z,20.56
2023-05-22T18:42:58.178Z,20.49
2023-05-22T18:45:25.731Z,20.41
2023-05-22T18:47:53.533Z,20.23
2023-05-22T18:50:23.570Z,20.26
2023-05-22T18:52:52.028Z,20.13
2023-05-22T18:55:20.480Z,20.21
2023-05-22T18:57:48.859Z,20.28
2023-05-22T19:00:17.241Z,20.15
2023-05-22T19:02:45.165Z,20.07
2023-05-22T19:05:13.278Z,20.10
2023-05-22T19:07:41.411Z,20.11
2023-05-22T19:10:09.882Z,19.85
2023-05-22T19:12:37.820Z,19.83
2023-05-22T19:15:07.463Z,19.81
2023-05-22T19:17:35.693Z,19.77
2023-05-22T19:20:06.774Z,19.78
2023-05-22T19:22:35.214Z,19.57
2023-05-22T19:25:03.695Z,19.39
2023-05-22T19:27:31.606Z,19.36
2023-05-22T19:29:59.730Z,19.31
2023-05-22T19:32:27.365Z,19.38
2023-05-22T19:34:54.897Z,19.25
2023-05-22T19:37:22.446Z,19.16
2023-05-22T19:39:49.976Z,19.04
2023-05-22T19:42:17.536Z,19.01
2023-05-22T19:44:45.088Z,19.02
2023-05-22T19:47:12.744Z,18.90
2023-05-22T19:49:40.541Z,18.86
2023-05-22T19:52:08.143Z,18.88
2023-05-22T19:54:36.347Z,18.88
2023-05-22T19:57:04.205Z,18.90
2023-05-22T19:59:32.660Z,18.81
2023-05-22T20:02:01.360Z,18.81
2023-05-22T20:04:29.067Z,18.76
2023-05-22T20:06:58.611Z,18.68
2023-05-22T20:09:26.964Z,18.67
2023-05-22T20:11:54.534Z,18.64
2023-05-22T20:14:22.122Z,18.55
2023-05-22T20:16:50.251Z,18.64
2023-05-22T20:19:18.040Z,18.49
2023-05-22T20:21:49.037Z,18.48
2023-05-22T20:24:18.881Z,18.49
2023-05-22T20:26:46.477Z,18.48
2023-05-22T20:29:17.493Z,18.52
2023-05-22T20:31:47.111Z,18.40
2023-05-22T20:34:14.786Z,18.30
2023-05-22T20:36:42.739Z,18.23
2023-05-22T20:39:11.898Z,18.27
2023-05-22T20:41:39.559Z,17.97
2023-05-22T20:44:07.720Z,17.81
2023-05-22T20:46:35.566Z,17.68
2023-05-22T20:49:04.768Z,17.54
2023-05-22T20:51:33.491Z,17.50
2023-05-22T20:54:01.374Z,17.23
2023-05-22T20:56:30.111Z,17.22
2023-05-22T20:58:57.972Z,17.00
2023-05-22T21:01:25.675Z,16.83
2023-05-22T21:03:56.393Z,16.84
2023-05-22T21:06:24.531Z,16.75
2023-05-22T21:08:54.213Z,16.71
2023-05-22T21:11:22.052Z,16.53
2023-05-22T21:13:50.126Z,16.57
2023-05-22T21:16:17.885Z,16.58
2023-05-22T21:18:46.063Z,16.55
2023-05-22T21:21:15.673Z,16.36
2023-05-22T21:23:43.542Z,16.35
2023-05-22T21:26:11.207Z,16.53
2023-05-22T21:28:38.955Z,16.36
2023-05-22T21:31:07.070Z,16.15
2023-05-22T21:33:34.775Z,16.35
2023-05-22T21:36:02.504Z,16.33
2023-05-22T21:38:30.199Z,16.33
2023-05-22T21:40:57.939Z,16.23
2023-05-22T21:43:26.293Z,16.16
2023-05-22T21:45:54.000Z,16.08
2023-05-22T21:48:21.669Z,16.04
2023-05-22T21:50:50.234Z,16.12
2023-05-22T21:53:17.867Z,15.90
2023-05-22T21:55:45.584Z,15.88
2023-05-22T21:58:13.703Z,15.88
2023-05-22T22:00:41.791Z,15.94
2023-05-22T22:03:09.818Z,15.87
2023-05-22T22:05:37.499Z,15.87
2023-05-22T22:08:06.116Z,15.96
2023-05-22T22:10:33.741Z,15.88
2023-05-22T22:13:02.325Z,15.87
2023-05-22T22:15:29.827Z,15.90
2023-05-22T22:17:59.539Z,15.78
2023-05-22T22:20:39.885Z,15.92
2023-05-22T22:23:12.266Z,15.79
2023-05-22T22:25:39.919Z,15.87
2023-05-22T22:28:08.201Z,15.99
2023-05-22T22:30:36.118Z,16.02
2023-05-22T22:33:03.798Z,16.05
2023-05-22T22:35:31.521Z,16.24
2023-05-22T22:37:59.490Z,16.23
2023-05-22T22:40:27.203Z,16.28
2023-05-22T22:42:54.826Z,16.23
2023-05-22T22:45:22.406Z,15.94
2023-05-22T22:47:50.033Z,15.80
2023-05-22T22:50:17.702Z,15.75
2023-05-22T22:52:46.281Z,15.94
2023-05-22T22:55:14.016Z,15.68
2023-05-22T22:57:43.298Z,15.80
2023-05-22T23:00:13.198Z,15.92
2023-05-22T23:02:41.396Z,15.64
2023-05-22T23:05:09.438Z,15.80
2023-05-22T23:07:37.164Z,15.81
2023-05-22T23:10:04.989Z,15.83
2023-05-22T23:12:35.215Z,15.95
2023-05-22T23:15:03.909Z,15.81
2023-05-22T23:17:31.540Z,15.86
2023-05-22T23:19:59.042Z,15.91
2023-05-22T23:22:26.622Z,15.98
2023-05-22T23:24:54.264Z,15.84
2023-05-22T23:27:21.897Z,15.67
2023-05-22T23:29:49.725Z,15.61
2023-05-22T23:32:17.320Z,15.47
2023-05-22T23:34:44.877Z,15.46
2023-05-22T23:37:12.410Z,15.68
2023-05-22T23:39:40.099Z,15.68
2023-05-22T23:42:09.773Z,15.77
2023-05-22T23:44:37.625Z,15.64
2023-05-22T23:47:05.431Z,15.55
2023-05-22T23:49:33.172Z,15.53
2023-05-22T23:52:01.096Z,15.51
2023-05-22T23:54:28.721Z,15.53
2023-05-22T23:56:56.301Z,15.52
2023-05-22T23:59:23.866Z,15.46
